Aviation Digital Data Service (ADDS)

Output produced by METARs form (0707 UTC 29 August 2016)
found at http://aviationweather.gov/adds/metars/
 
KLAN 290540Z 2906/3006 VRB03KT P6SM SCT250 
     FM291000 06004KT 4SM BR SCT250 
     TEMPO 2911/2913 2SM BR SCT007 
     FM291300 08004KT P6SM SCT250